sensor_id;sensor_type;location;lat;lon;timestamp;P1;durP1;ratioP1;P2;durP2;ratioP2
82806;SDS011;72563;44.816;20.484;2024-02-15T00:00:51;41.47;;;20.88;;
82806;SDS011;72563;44.816;20.484;2024-02-15T00:03:17;42.60;;;19.83;;
82806;SDS011;72563;44.816;20.484;2024-02-15T00:05:43;40.58;;;20.77;;
82806;SDS011;72563;44.816;20.484;2024-02-15T00:08:11;40.80;;;19.85;;
82806;SDS011;72563;44.816;20.484;2024-02-15T00:10:37;45.92;;;21.27;;
82806;SDS011;72563;44.816;20.484;2024-02-15T00:13:03;46.13;;;21.10;;
82806;SDS011;72563;44.816;20.484;2024-02-15T00:17:56;37.17;;;19.17;;
82806;SDS011;72563;44.816;20.484;2024-02-15T00:20:22;38.88;;;19.95;;
82806;SDS011;72563;44.816;20.484;2024-02-15T00:22:48;37.70;;;19.58;;
82806;SDS011;72563;44.816;20.484;2024-02-15T00:25:14;38.92;;;19.77;;
82806;SDS011;72563;44.816;20.484;2024-02-15T00:27:39;38.20;;;18.55;;
82806;SDS011;72563;44.816;20.484;2024-02-15T00:30:05;37.53;;;18.38;;
82806;SDS011;72563;44.816;20.484;2024-02-15T00:32:32;37.65;;;19.50;;
82806;SDS011;72563;44.816;20.484;2024-02-15T00:34:58;35.72;;;18.45;;
82806;SDS011;72563;44.816;20.484;2024-02-15T00:37:24;40.05;;;18.88;;
82806;SDS011;72563;44.816;20.484;2024-02-15T00:39:50;34.97;;;16.75;;
82806;SDS011;72563;44.816;20.484;2024-02-15T00:42:15;35.50;;;17.92;;
82806;SDS011;72563;44.816;20.484;2024-02-15T00:44:41;34.97;;;17.60;;
82806;SDS011;72563;44.816;20.484;2024-02-15T00:47:07;35.97;;;18.80;;
82806;SDS011;72563;44.816;20.484;2024-02-15T00:49:35;38.95;;;17.80;;
82806;SDS011;72563;44.816;20.484;2024-02-15T00:52:01;35.03;;;16.88;;
82806;SDS011;72563;44.816;20.484;2024-02-15T00:54:26;36.22;;;16.85;;
82806;SDS011;72563;44.816;20.484;2024-02-15T00:56:52;30.60;;;15.05;;
82806;SDS011;72563;44.816;20.484;2024-02-15T00:59:17;30.73;;;15.63;;
82806;SDS011;72563;44.816;20.484;2024-02-15T01:01:43;31.83;;;17.00;;
82806;SDS011;72563;44.816;20.484;2024-02-15T01:04:10;32.33;;;17.10;;
82806;SDS011;72563;44.816;20.484;2024-02-15T01:06:35;32.28;;;16.02;;
82806;SDS011;72563;44.816;20.484;2024-02-15T01:09:01;31.60;;;15.52;;
82806;SDS011;72563;44.816;20.484;2024-02-15T01:11:31;34.55;;;16.98;;
82806;SDS011;72563;44.816;20.484;2024-02-15T01:14:01;30.77;;;15.93;;
82806;SDS011;72563;44.816;20.484;2024-02-15T01:16:27;31.30;;;14.85;;
82806;SDS011;72563;44.816;20.484;2024-02-15T01:18:52;27.60;;;14.23;;
82806;SDS011;72563;44.816;20.484;2024-02-15T01:21:18;30.38;;;14.25;;
82806;SDS011;72563;44.816;20.484;2024-02-15T01:23:44;28.23;;;14.27;;
82806;SDS011;72563;44.816;20.484;2024-02-15T01:26:11;25.77;;;14.10;;
82806;SDS011;72563;44.816;20.484;2024-02-15T01:31:07;29.88;;;13.95;;
82806;SDS011;72563;44.816;20.484;2024-02-15T01:33:35;29.20;;;13.77;;
82806;SDS011;72563;44.816;20.484;2024-02-15T01:36:01;28.40;;;14.93;;
82806;SDS011;72563;44.816;20.484;2024-02-15T01:38:27;30.02;;;14.60;;
82806;SDS011;72563;44.816;20.484;2024-02-15T01:40:53;29.42;;;14.45;;
82806;SDS011;72563;44.816;20.484;2024-02-15T01:43:18;32.47;;;17.80;;
82806;SDS011;72563;44.816;20.484;2024-02-15T01:45:44;32.28;;;15.27;;
82806;SDS011;72563;44.816;20.484;2024-02-15T01:48:12;34.00;;;16.88;;
82806;SDS011;72563;44.816;20.484;2024-02-15T01:50:39;32.35;;;16.67;;
82806;SDS011;72563;44.816;20.484;2024-02-15T01:53:06;34.10;;;15.75;;
82806;SDS011;72563;44.816;20.484;2024-02-15T01:55:33;33.72;;;15.95;;
82806;SDS011;72563;44.816;20.484;2024-02-15T01:58:00;31.83;;;15.85;;
82806;SDS011;72563;44.816;20.484;2024-02-15T02:00:26;34.95;;;16.33;;
82806;SDS011;72563;44.816;20.484;2024-02-15T02:02:52;31.35;;;16.13;;
82806;SDS011;72563;44.816;20.484;2024-02-15T02:05:19;33.45;;;15.90;;
82806;SDS011;72563;44.816;20.484;2024-02-15T02:07:45;37.40;;;17.70;;
82806;SDS011;72563;44.816;20.484;2024-02-15T02:10:11;36.35;;;16.60;;
82806;SDS011;72563;44.816;20.484;2024-02-15T02:12:37;34.85;;;16.15;;
82806;SDS011;72563;44.816;20.484;2024-02-15T02:15:05;35.42;;;15.98;;
82806;SDS011;72563;44.816;20.484;2024-02-15T02:17:32;33.15;;;15.20;;
82806;SDS011;72563;44.816;20.484;2024-02-15T02:19:59;31.27;;;15.77;;
82806;SDS011;72563;44.816;20.484;2024-02-15T02:22:24;31.70;;;16.05;;
82806;SDS011;72563;44.816;20.484;2024-02-15T02:25:06;31.77;;;15.70;;
82806;SDS011;72563;44.816;20.484;2024-02-15T02:27:36;28.05;;;15.02;;
82806;SDS011;72563;44.816;20.484;2024-02-15T02:30:05;29.88;;;15.07;;
82806;SDS011;72563;44.816;20.484;2024-02-15T02:32:40;29.08;;;14.95;;
82806;SDS011;72563;44.816;20.484;2024-02-15T02:35:06;30.02;;;14.20;;
82806;SDS011;72563;44.816;20.484;2024-02-15T02:37:32;35.53;;;14.77;;
82806;SDS011;72563;44.816;20.484;2024-02-15T02:40:00;30.85;;;14.52;;
82806;SDS011;72563;44.816;20.484;2024-02-15T02:42:25;31.98;;;14.80;;
82806;SDS011;72563;44.816;20.484;2024-02-15T02:44:51;31.17;;;15.27;;
82806;SDS011;72563;44.816;20.484;2024-02-15T02:47:16;33.80;;;16.55;;
82806;SDS011;72563;44.816;20.484;2024-02-15T02:49:42;29.50;;;15.02;;
82806;SDS011;72563;44.816;20.484;2024-02-15T02:52:08;29.77;;;14.63;;
82806;SDS011;72563;44.816;20.484;2024-02-15T02:54:33;27.65;;;13.73;;
82806;SDS011;72563;44.816;20.484;2024-02-15T02:57:00;32.33;;;14.82;;
82806;SDS011;72563;44.816;20.484;2024-02-15T02:59:25;32.97;;;15.32;;
82806;SDS011;72563;44.816;20.484;2024-02-15T03:01:51;30.83;;;14.70;;
82806;SDS011;72563;44.816;20.484;2024-02-15T03:04:16;30.92;;;15.30;;
82806;SDS011;72563;44.816;20.484;2024-02-15T03:06:42;31.80;;;15.13;;
82806;SDS011;72563;44.816;20.484;2024-02-15T03:09:08;29.83;;;15.38;;
82806;SDS011;72563;44.816;20.484;2024-02-15T03:11:35;32.15;;;14.98;;
82806;SDS011;72563;44.816;20.484;2024-02-15T03:14:01;31.20;;;14.82;;
82806;SDS011;72563;44.816;20.484;2024-02-15T03:18:55;31.55;;;13.57;;
82806;SDS011;72563;44.816;20.484;2024-02-15T03:21:20;28.98;;;13.95;;
82806;SDS011;72563;44.816;20.484;2024-02-15T03:23:46;25.35;;;13.77;;
82806;SDS011;72563;44.816;20.484;2024-02-15T03:26:11;28.50;;;13.75;;
82806;SDS011;72563;44.816;20.484;2024-02-15T03:28:37;33.45;;;14.98;;
82806;SDS011;72563;44.816;20.484;2024-02-15T03:31:03;33.40;;;15.75;;
82806;SDS011;72563;44.816;20.484;2024-02-15T03:33:28;26.40;;;13.88;;
82806;SDS011;72563;44.816;20.484;2024-02-15T03:35:59;33.28;;;15.80;;
82806;SDS011;72563;44.816;20.484;2024-02-15T03:38:25;31.05;;;14.52;;
82806;SDS011;72563;44.816;20.484;2024-02-15T03:40:52;29.23;;;14.85;;
82806;SDS011;72563;44.816;20.484;2024-02-15T03:43:18;29.45;;;14.45;;
82806;SDS011;72563;44.816;20.484;2024-02-15T03:45:44;29.77;;;13.70;;
82806;SDS011;72563;44.816;20.484;2024-02-15T03:48:09;32.40;;;15.93;;
82806;SDS011;72563;44.816;20.484;2024-02-15T03:50:35;25.98;;;15.23;;
82806;SDS011;72563;44.816;20.484;2024-02-15T03:53:01;28.52;;;14.80;;
82806;SDS011;72563;44.816;20.484;2024-02-15T03:55:26;28.85;;;14.88;;
82806;SDS011;72563;44.816;20.484;2024-02-15T03:57:51;33.33;;;15.32;;
82806;SDS011;72563;44.816;20.484;2024-02-15T04:00:20;29.25;;;15.07;;
82806;SDS011;72563;44.816;20.484;2024-02-15T04:02:46;29.52;;;14.20;;
82806;SDS011;72563;44.816;20.484;2024-02-15T04:05:14;29.95;;;14.48;;
82806;SDS011;72563;44.816;20.484;2024-02-15T04:07:39;28.42;;;14.52;;
82806;SDS011;72563;44.816;20.484;2024-02-15T04:10:05;25.85;;;13.27;;
82806;SDS011;72563;44.816;20.484;2024-02-15T04:12:32;30.95;;;14.90;;
82806;SDS011;72563;44.816;20.484;2024-02-15T04:14:58;28.35;;;13.60;;
82806;SDS011;72563;44.816;20.484;2024-02-15T04:17:32;28.23;;;14.38;;
82806;SDS011;72563;44.816;20.484;2024-02-15T04:20:00;28.60;;;14.52;;
82806;SDS011;72563;44.816;20.484;2024-02-15T04:22:26;27.95;;;13.30;;
82806;SDS011;72563;44.816;20.484;2024-02-15T04:24:51;32.00;;;14.50;;
82806;SDS011;72563;44.816;20.484;2024-02-15T04:27:17;27.95;;;13.75;;
82806;SDS011;72563;44.816;20.484;2024-02-15T04:29:45;26.13;;;13.43;;
82806;SDS011;72563;44.816;20.484;2024-02-15T04:32:11;26.83;;;13.35;;
82806;SDS011;72563;44.816;20.484;2024-02-15T04:34:38;29.55;;;14.30;;
82806;SDS011;72563;44.816;20.484;2024-02-15T04:37:06;28.83;;;13.65;;
82806;SDS011;72563;44.816;20.484;2024-02-15T04:39:35;29.52;;;13.75;;
82806;SDS011;72563;44.816;20.484;2024-02-15T04:42:04;27.48;;;13.48;;
82806;SDS011;72563;44.816;20.484;2024-02-15T04:44:39;28.10;;;13.25;;
82806;SDS011;72563;44.816;20.484;2024-02-15T04:47:04;24.48;;;13.05;;
82806;SDS011;72563;44.816;20.484;2024-02-15T04:49:30;27.27;;;14.00;;
82806;SDS011;72563;44.816;20.484;2024-02-15T04:51:56;27.17;;;13.07;;
82806;SDS011;72563;44.816;20.484;2024-02-15T04:54:27;28.17;;;13.77;;
82806;SDS011;72563;44.816;20.484;2024-02-15T04:56:52;27.98;;;13.90;;
82806;SDS011;72563;44.816;20.484;2024-02-15T04:59:19;29.77;;;12.57;;
82806;SDS011;72563;44.816;20.484;2024-02-15T05:01:47;30.08;;;14.23;;
82806;SDS011;72563;44.816;20.484;2024-02-15T05:04:14;29.10;;;14.73;;
82806;SDS011;72563;44.816;20.484;2024-02-15T05:06:40;27.17;;;13.68;;
82806;SDS011;72563;44.816;20.484;2024-02-15T05:09:06;26.40;;;13.60;;
82806;SDS011;72563;44.816;20.484;2024-02-15T05:11:38;26.58;;;14.15;;
82806;SDS011;72563;44.816;20.484;2024-02-15T05:14:11;27.38;;;12.85;;
82806;SDS011;72563;44.816;20.484;2024-02-15T05:16:37;26.70;;;13.75;;
82806;SDS011;72563;44.816;20.484;2024-02-15T05:19:08;25.35;;;13.88;;
82806;SDS011;72563;44.816;20.484;2024-02-15T05:21:37;27.35;;;13.43;;
82806;SDS011;72563;44.816;20.484;2024-02-15T05:24:03;30.10;;;14.68;;
82806;SDS011;72563;44.816;20.484;2024-02-15T05:26:29;26.38;;;13.43;;
82806;SDS011;72563;44.816;20.484;2024-02-15T05:28:55;26.90;;;13.88;;
82806;SDS011;72563;44.816;20.484;2024-02-15T05:31:21;29.75;;;13.90;;
82806;SDS011;72563;44.816;20.484;2024-02-15T05:33:50;25.05;;;13.85;;
82806;SDS011;72563;44.816;20.484;2024-02-15T05:36:17;29.73;;;13.75;;
82806;SDS011;72563;44.816;20.484;2024-02-15T05:38:50;27.48;;;13.23;;
82806;SDS011;72563;44.816;20.484;2024-02-15T05:41:18;27.48;;;13.98;;
82806;SDS011;72563;44.816;20.484;2024-02-15T05:43:44;30.70;;;13.25;;
82806;SDS011;72563;44.816;20.484;2024-02-15T05:46:11;25.58;;;12.82;;
82806;SDS011;72563;44.816;20.484;2024-02-15T05:48:37;29.90;;;13.20;;
82806;SDS011;72563;44.816;20.484;2024-02-15T05:51:04;27.60;;;13.20;;
82806;SDS011;72563;44.816;20.484;2024-02-15T05:53:31;26.75;;;13.50;;
82806;SDS011;72563;44.816;20.484;2024-02-15T05:56:05;28.85;;;13.35;;
82806;SDS011;72563;44.816;20.484;2024-02-15T05:58:32;26.27;;;13.40;;
82806;SDS011;72563;44.816;20.484;2024-02-15T06:00:58;25.60;;;12.98;;
82806;SDS011;72563;44.816;20.484;2024-02-15T06:03:31;26.30;;;14.00;;
82806;SDS011;72563;44.816;20.484;2024-02-15T06:06:01;27.55;;;13.43;;
82806;SDS011;72563;44.816;20.484;2024-02-15T06:08:31;25.42;;;13.55;;
82806;SDS011;72563;44.816;20.484;2024-02-15T06:10:57;24.67;;;12.93;;
82806;SDS011;72563;44.816;20.484;2024-02-15T06:13:23;24.60;;;13.70;;
82806;SDS011;72563;44.816;20.484;2024-02-15T06:15:50;27.75;;;12.98;;
82806;SDS011;72563;44.816;20.484;2024-02-15T06:18:25;23.63;;;12.70;;
82806;SDS011;72563;44.816;20.484;2024-02-15T06:20:54;26.05;;;13.73;;
82806;SDS011;72563;44.816;20.484;2024-02-15T06:23:22;21.88;;;12.32;;
82806;SDS011;72563;44.816;20.484;2024-02-15T06:25:50;25.00;;;13.13;;
82806;SDS011;72563;44.816;20.484;2024-02-15T06:28:18;26.48;;;13.13;;
82806;SDS011;72563;44.816;20.484;2024-02-15T06:31:02;23.42;;;11.63;;
82806;SDS011;72563;44.816;20.484;2024-02-15T06:33:46;26.33;;;14.00;;
82806;SDS011;72563;44.816;20.484;2024-02-15T06:36:30;26.75;;;13.27;;
82806;SDS011;72563;44.816;20.484;2024-02-15T06:39:14;22.73;;;11.68;;
82806;SDS011;72563;44.816;20.484;2024-02-15T06:41:58;23.85;;;11.88;;
82806;SDS011;72563;44.816;20.484;2024-02-15T06:44:24;24.52;;;11.50;;
82806;SDS011;72563;44.816;20.484;2024-02-15T06:46:49;24.73;;;12.15;;
82806;SDS011;72563;44.816;20.484;2024-02-15T06:49:16;25.80;;;12.38;;
82806;SDS011;72563;44.816;20.484;2024-02-15T06:51:41;25.52;;;12.95;;
82806;SDS011;72563;44.816;20.484;2024-02-15T06:54:08;27.88;;;13.52;;
82806;SDS011;72563;44.816;20.484;2024-02-15T06:56:36;22.98;;;11.13;;
82806;SDS011;72563;44.816;20.484;2024-02-15T06:59:03;21.45;;;10.93;;
82806;SDS011;72563;44.816;20.484;2024-02-15T07:01:28;21.75;;;11.60;;
82806;SDS011;72563;44.816;20.484;2024-02-15T07:03:54;23.50;;;11.50;;
82806;SDS011;72563;44.816;20.484;2024-02-15T07:06:21;20.98;;;10.95;;
82806;SDS011;72563;44.816;20.484;2024-02-15T07:08:47;27.60;;;10.85;;
82806;SDS011;72563;44.816;20.484;2024-02-15T07:11:15;23.83;;;11.40;;
82806;SDS011;72563;44.816;20.484;2024-02-15T07:13:41;22.10;;;11.35;;
82806;SDS011;72563;44.816;20.484;2024-02-15T07:16:10;23.20;;;11.68;;
82806;SDS011;72563;44.816;20.484;2024-02-15T07:18:36;24.42;;;11.07;;
82806;SDS011;72563;44.816;20.484;2024-02-15T07:21:02;23.50;;;11.43;;
82806;SDS011;72563;44.816;20.484;2024-02-15T07:23:33;23.70;;;11.60;;
82806;SDS011;72563;44.816;20.484;2024-02-15T07:25:59;19.85;;;10.63;;
82806;SDS011;72563;44.816;20.484;2024-02-15T07:28:25;24.73;;;12.65;;
82806;SDS011;72563;44.816;20.484;2024-02-15T07:30:54;27.73;;;11.48;;
82806;SDS011;72563;44.816;20.484;2024-02-15T07:33:19;28.75;;;10.98;;
82806;SDS011;72563;44.816;20.484;2024-02-15T07:35:47;19.35;;;10.35;;
82806;SDS011;72563;44.816;20.484;2024-02-15T07:38:16;21.20;;;9.75;;
82806;SDS011;72563;44.816;20.484;2024-02-15T07:40:42;22.92;;;10.77;;
82806;SDS011;72563;44.816;20.484;2024-02-15T07:43:07;22.45;;;10.75;;
82806;SDS011;72563;44.816;20.484;2024-02-15T07:45:33;21.38;;;11.40;;
82806;SDS011;72563;44.816;20.484;2024-02-15T07:48:02;23.42;;;11.45;;
82806;SDS011;72563;44.816;20.484;2024-02-15T07:50:30;20.40;;;10.95;;
82806;SDS011;72563;44.816;20.484;2024-02-15T07:52:56;21.35;;;11.70;;
82806;SDS011;72563;44.816;20.484;2024-02-15T07:55:23;21.80;;;11.65;;
82806;SDS011;72563;44.816;20.484;2024-02-15T07:57:52;20.48;;;10.88;;
82806;SDS011;72563;44.816;20.484;2024-02-15T08:00:18;19.75;;;11.20;;
82806;SDS011;72563;44.816;20.484;2024-02-15T08:02:44;20.20;;;11.15;;
82806;SDS011;72563;44.816;20.484;2024-02-15T08:05:11;19.85;;;10.60;;
82806;SDS011;72563;44.816;20.484;2024-02-15T08:07:40;20.02;;;10.50;;
82806;SDS011;72563;44.816;20.484;2024-02-15T08:10:06;19.48;;;10.98;;
82806;SDS011;72563;44.816;20.484;2024-02-15T08:12:44;22.27;;;10.80;;
82806;SDS011;72563;44.816;20.484;2024-02-15T08:15:11;18.83;;;9.98;;
82806;SDS011;72563;44.816;20.484;2024-02-15T08:17:43;18.80;;;10.23;;
82806;SDS011;72563;44.816;20.484;2024-02-15T08:20:13;16.52;;;9.75;;
82806;SDS011;72563;44.816;20.484;2024-02-15T08:22:41;19.27;;;10.32;;
82806;SDS011;72563;44.816;20.484;2024-02-15T08:25:09;17.55;;;9.70;;
82806;SDS011;72563;44.816;20.484;2024-02-15T08:27:36;20.45;;;10.68;;
82806;SDS011;72563;44.816;20.484;2024-02-15T08:30:08;15.65;;;8.52;;
82806;SDS011;72563;44.816;20.484;2024-02-15T08:32:34;17.65;;;8.77;;
82806;SDS011;72563;44.816;20.484;2024-02-15T08:35:00;16.60;;;8.60;;
82806;SDS011;72563;44.816;20.484;2024-02-15T08:37:27;17.58;;;8.57;;
82806;SDS011;72563;44.816;20.484;2024-02-15T08:39:52;16.77;;;9.63;;
82806;SDS011;72563;44.816;20.484;2024-02-15T08:42:18;21.52;;;11.27;;
82806;SDS011;72563;44.816;20.484;2024-02-15T08:44:47;22.45;;;11.68;;
82806;SDS011;72563;44.816;20.484;2024-02-15T08:47:14;21.17;;;10.98;;
82806;SDS011;72563;44.816;20.484;2024-02-15T08:49:40;20.52;;;9.63;;
82806;SDS011;72563;44.816;20.484;2024-02-15T08:52:06;19.52;;;9.80;;
82806;SDS011;72563;44.816;20.484;2024-02-15T08:54:33;22.02;;;9.95;;
82806;SDS011;72563;44.816;20.484;2024-02-15T08:56:59;18.38;;;10.52;;
82806;SDS011;72563;44.816;20.484;2024-02-15T08:59:26;18.98;;;10.35;;
82806;SDS011;72563;44.816;20.484;2024-02-15T09:01:53;18.13;;;10.40;;
82806;SDS011;72563;44.816;20.484;2024-02-15T09:04:21;19.83;;;10.48;;
82806;SDS011;72563;44.816;20.484;2024-02-15T09:06:48;22.73;;;12.15;;
82806;SDS011;72563;44.816;20.484;2024-02-15T09:09:14;19.92;;;11.43;;
82806;SDS011;72563;44.816;20.484;2024-02-15T09:11:39;16.20;;;10.20;;
82806;SDS011;72563;44.816;20.484;2024-02-15T09:14:05;15.25;;;9.18;;
82806;SDS011;72563;44.816;20.484;2024-02-15T09:16:31;19.05;;;10.55;;
82806;SDS011;72563;44.816;20.484;2024-02-15T09:18:58;18.20;;;9.95;;
82806;SDS011;72563;44.816;20.484;2024-02-15T09:21:26;23.83;;;13.15;;
82806;SDS011;72563;44.816;20.484;2024-02-15T09:23:53;23.85;;;11.55;;
82806;SDS011;72563;44.816;20.484;2024-02-15T09:26:19;63.38;;;23.88;;
82806;SDS011;72563;44.816;20.484;2024-02-15T09:28:45;43.63;;;18.05;;
82806;SDS011;72563;44.816;20.484;2024-02-15T09:31:13;21.20;;;10.43;;
82806;SDS011;72563;44.816;20.484;2024-02-15T09:33:39;23.63;;;11.00;;
82806;SDS011;72563;44.816;20.484;2024-02-15T09:36:05;71.05;;;24.30;;
82806;SDS011;72563;44.816;20.484;2024-02-15T09:38:31;21.23;;;9.70;;
82806;SDS011;72563;44.816;20.484;2024-02-15T09:40:57;17.90;;;9.40;;
82806;SDS011;72563;44.816;20.484;2024-02-15T09:43:23;19.42;;;9.45;;
82806;SDS011;72563;44.816;20.484;2024-02-15T09:45:54;17.45;;;10.20;;
82806;SDS011;72563;44.816;20.484;2024-02-15T09:48:20;22.52;;;10.45;;
82806;SDS011;72563;44.816;20.484;2024-02-15T09:50:50;24.55;;;13.77;;
82806;SDS011;72563;44.816;20.484;2024-02-15T09:53:20;18.08;;;10.63;;
82806;SDS011;72563;44.816;20.484;2024-02-15T09:55:47;19.30;;;10.07;;
82806;SDS011;72563;44.816;20.484;2024-02-15T09:58:13;19.67;;;11.07;;
82806;SDS011;72563;44.816;20.484;2024-02-15T10:00:40;18.25;;;11.10;;
82806;SDS011;72563;44.816;20.484;2024-02-15T10:03:07;21.05;;;11.48;;
82806;SDS011;72563;44.816;20.484;2024-02-15T10:05:37;20.13;;;10.88;;
82806;SDS011;72563;44.816;20.484;2024-02-15T10:08:04;19.17;;;10.85;;
82806;SDS011;72563;44.816;20.484;2024-02-15T10:10:32;18.85;;;10.75;;
82806;SDS011;72563;44.816;20.484;2024-02-15T10:12:59;16.13;;;10.77;;
82806;SDS011;72563;44.816;20.484;2024-02-15T10:15:38;18.60;;;9.88;;
82806;SDS011;72563;44.816;20.484;2024-02-15T10:18:10;18.40;;;10.23;;
82806;SDS011;72563;44.816;20.484;2024-02-15T10:20:40;14.73;;;8.38;;
82806;SDS011;72563;44.816;20.484;2024-02-15T10:23:12;16.67;;;8.60;;
82806;SDS011;72563;44.816;20.484;2024-02-15T10:25:42;17.58;;;8.20;;
82806;SDS011;72563;44.816;20.484;2024-02-15T10:28:11;16.05;;;9.63;;
82806;SDS011;72563;44.816;20.484;2024-02-15T10:30:38;19.92;;;11.45;;
82806;SDS011;72563;44.816;20.484;2024-02-15T10:33:27;17.55;;;11.07;;
82806;SDS011;72563;44.816;20.484;2024-02-15T10:36:06;18.17;;;9.20;;
82806;SDS011;72563;44.816;20.484;2024-02-15T10:38:33;19.05;;;9.82;;
82806;SDS011;72563;44.816;20.484;2024-02-15T10:41:05;16.45;;;9.60;;
82806;SDS011;72563;44.816;20.484;2024-02-15T10:43:35;18.02;;;10.02;;
82806;SDS011;72563;44.816;20.484;2024-02-15T10:46:03;18.85;;;10.30;;
82806;SDS011;72563;44.816;20.484;2024-02-15T10:48:29;17.75;;;10.65;;
82806;SDS011;72563;44.816;20.484;2024-02-15T10:50:56;18.30;;;10.63;;
82806;SDS011;72563;44.816;20.484;2024-02-15T10:53:27;20.42;;;10.85;;
82806;SDS011;72563;44.816;20.484;2024-02-15T10:58:51;19.70;;;10.68;;
82806;SDS011;72563;44.816;20.484;2024-02-15T11:01:47;17.23;;;9.98;;
82806;SDS011;72563;44.816;20.484;2024-02-15T11:04:19;17.00;;;10.07;;
82806;SDS011;72563;44.816;20.484;2024-02-15T11:06:50;16.75;;;9.80;;
82806;SDS011;72563;44.816;20.484;2024-02-15T11:09:17;18.42;;;10.80;;
82806;SDS011;72563;44.816;20.484;2024-02-15T11:11:44;18.10;;;10.27;;
82806;SDS011;72563;44.816;20.484;2024-02-15T11:14:27;13.68;;;8.52;;
82806;SDS011;72563;44.816;20.484;2024-02-15T11:16:55;16.98;;;8.73;;
82806;SDS011;72563;44.816;20.484;2024-02-15T11:21:57;14.52;;;8.65;;
82806;SDS011;72563;44.816;20.484;2024-02-15T11:24:27;15.93;;;7.93;;
82806;SDS011;72563;44.816;20.484;2024-02-15T11:27:03;16.33;;;8.40;;
82806;SDS011;72563;44.816;20.484;2024-02-15T11:35:11;17.20;;;7.53;;
82806;SDS011;72563;44.816;20.484;2024-02-15T11:40:13;16.13;;;7.50;;
82806;SDS011;72563;44.816;20.484;2024-02-15T11:42:39;14.43;;;7.55;;
82806;SDS011;72563;44.816;20.484;2024-02-15T11:47:32;14.80;;;8.23;;
82806;SDS011;72563;44.816;20.484;2024-02-15T11:50:03;13.45;;;7.10;;
82806;SDS011;72563;44.816;20.484;2024-02-15T11:52:30;13.52;;;7.20;;
82806;SDS011;72563;44.816;20.484;2024-02-15T11:55:08;13.05;;;6.80;;
82806;SDS011;72563;44.816;20.484;2024-02-15T11:57:41;15.38;;;7.47;;
82806;SDS011;72563;44.816;20.484;2024-02-15T12:00:22;12.27;;;6.72;;
82806;SDS011;72563;44.816;20.484;2024-02-15T12:03:07;11.25;;;6.30;;
82806;SDS011;72563;44.816;20.484;2024-02-15T12:06:02;12.40;;;6.38;;
82806;SDS011;72563;44.816;20.484;2024-02-15T12:08:47;10.75;;;5.53;;
82806;SDS011;72563;44.816;20.484;2024-02-15T12:11:32;11.45;;;5.47;;
82806;SDS011;72563;44.816;20.484;2024-02-15T12:14:16;11.02;;;5.55;;
82806;SDS011;72563;44.816;20.484;2024-02-15T12:19:49;10.00;;;4.32;;
82806;SDS011;72563;44.816;20.484;2024-02-15T12:24:58;10.25;;;4.80;;
82806;SDS011;72563;44.816;20.484;2024-02-15T12:27:40;9.88;;;4.97;;
82806;SDS011;72563;44.816;20.484;2024-02-15T12:30:12;9.07;;;4.65;;
82806;SDS011;72563;44.816;20.484;2024-02-15T12:32:45;9.82;;;5.05;;
82806;SDS011;72563;44.816;20.484;2024-02-15T12:35:13;9.05;;;4.68;;
82806;SDS011;72563;44.816;20.484;2024-02-15T12:37:44;9.52;;;4.78;;
82806;SDS011;72563;44.816;20.484;2024-02-15T12:40:17;9.98;;;5.47;;
82806;SDS011;72563;44.816;20.484;2024-02-15T12:42:44;9.63;;;4.88;;
82806;SDS011;72563;44.816;20.484;2024-02-15T12:45:19;10.13;;;4.88;;
82806;SDS011;72563;44.816;20.484;2024-02-15T12:47:55;11.88;;;5.97;;
82806;SDS011;72563;44.816;20.484;2024-02-15T12:50:22;9.75;;;5.05;;
82806;SDS011;72563;44.816;20.484;2024-02-15T12:52:49;10.38;;;5.15;;
82806;SDS011;72563;44.816;20.484;2024-02-15T12:55:19;10.27;;;4.65;;
82806;SDS011;72563;44.816;20.484;2024-02-15T12:57:52;11.00;;;5.03;;
82806;SDS011;72563;44.816;20.484;2024-02-15T13:00:24;10.23;;;4.55;;
82806;SDS011;72563;44.816;20.484;2024-02-15T13:02:57;9.20;;;4.63;;
82806;SDS011;72563;44.816;20.484;2024-02-15T13:05:24;12.10;;;4.95;;
82806;SDS011;72563;44.816;20.484;2024-02-15T13:07:52;10.18;;;5.07;;
82806;SDS011;72563;44.816;20.484;2024-02-15T13:10:21;11.52;;;5.32;;
82806;SDS011;72563;44.816;20.484;2024-02-15T13:12:47;11.65;;;5.90;;
82806;SDS011;72563;44.816;20.484;2024-02-15T13:15:13;11.57;;;4.40;;
82806;SDS011;72563;44.816;20.484;2024-02-15T13:17:43;9.23;;;4.32;;
82806;SDS011;72563;44.816;20.484;2024-02-15T13:20:11;11.48;;;4.82;;
82806;SDS011;72563;44.816;20.484;2024-02-15T13:22:39;10.60;;;4.20;;
82806;SDS011;72563;44.816;20.484;2024-02-15T13:25:06;9.55;;;3.92;;
82806;SDS011;72563;44.816;20.484;2024-02-15T13:27:35;10.05;;;3.72;;
82806;SDS011;72563;44.816;20.484;2024-02-15T13:30:03;9.18;;;4.40;;
82806;SDS011;72563;44.816;20.484;2024-02-15T13:32:34;8.10;;;3.58;;
82806;SDS011;72563;44.816;20.484;2024-02-15T13:35:09;10.13;;;4.03;;
82806;SDS011;72563;44.816;20.484;2024-02-15T13:37:41;9.25;;;4.28;;
82806;SDS011;72563;44.816;20.484;2024-02-15T13:40:10;9.65;;;4.43;;
82806;SDS011;72563;44.816;20.484;2024-02-15T13:42:45;9.70;;;4.47;;
82806;SDS011;72563;44.816;20.484;2024-02-15T13:45:24;9.10;;;4.25;;
82806;SDS011;72563;44.816;20.484;2024-02-15T13:47:57;10.25;;;4.43;;
82806;SDS011;72563;44.816;20.484;2024-02-15T13:50:29;9.13;;;4.93;;
82806;SDS011;72563;44.816;20.484;2024-02-15T13:52:56;9.20;;;4.35;;
82806;SDS011;72563;44.816;20.484;2024-02-15T13:55:25;9.45;;;4.45;;
82806;SDS011;72563;44.816;20.484;2024-02-15T13:57:51;11.52;;;5.07;;
82806;SDS011;72563;44.816;20.484;2024-02-15T14:00:18;9.90;;;4.80;;
82806;SDS011;72563;44.816;20.484;2024-02-15T14:02:50;10.75;;;4.72;;
82806;SDS011;72563;44.816;20.484;2024-02-15T14:05:17;10.65;;;5.45;;
82806;SDS011;72563;44.816;20.484;2024-02-15T14:07:52;10.13;;;5.30;;
82806;SDS011;72563;44.816;20.484;2024-02-15T14:10:20;11.82;;;5.15;;
82806;SDS011;72563;44.816;20.484;2024-02-15T14:12:50;12.73;;;5.90;;
82806;SDS011;72563;44.816;20.484;2024-02-15T14:15:30;12.27;;;5.07;;
82806;SDS011;72563;44.816;20.484;2024-02-15T14:18:05;9.20;;;5.05;;
82806;SDS011;72563;44.816;20.484;2024-02-15T14:20:31;11.35;;;5.45;;
82806;SDS011;72563;44.816;20.484;2024-02-15T14:22:57;10.10;;;4.90;;
82806;SDS011;72563;44.816;20.484;2024-02-15T14:25:23;10.88;;;4.75;;
82806;SDS011;72563;44.816;20.484;2024-02-15T14:27:50;10.38;;;4.82;;
82806;SDS011;72563;44.816;20.484;2024-02-15T14:30:18;9.77;;;4.80;;
82806;SDS011;72563;44.816;20.484;2024-02-15T14:33:02;11.57;;;4.47;;
82806;SDS011;72563;44.816;20.484;2024-02-15T14:35:36;10.52;;;5.03;;
82806;SDS011;72563;44.816;20.484;2024-02-15T14:38:05;11.38;;;4.60;;
82806;SDS011;72563;44.816;20.484;2024-02-15T14:40:36;11.75;;;4.80;;
82806;SDS011;72563;44.816;20.484;2024-02-15T14:43:02;9.88;;;4.75;;
82806;SDS011;72563;44.816;20.484;2024-02-15T14:45:30;10.40;;;4.28;;
82806;SDS011;72563;44.816;20.484;2024-02-15T14:50:23;10.85;;;4.85;;
82806;SDS011;72563;44.816;20.484;2024-02-15T14:52:49;10.25;;;4.82;;